BEZ313 -TFFG
Flight info
| Callsign | BEZ313 |
|---|---|
| Flight time | N/A |
| Altitude | VFR |
| Route | |
| Aircraft |
Departure
| Time | N/A |
|---|---|
| Airport | - |
Arrival
| Time | 2026-05-06 21:52 |
|---|---|
| Airport | Grand Case-l'Espérance Airport (TFFG) |
| Time | Latitude | Longitude | Altitude | Speed | Heading |
|---|---|---|---|---|---|
| 2026-05-06 21:38 | 17.86433 | -62.65773 | 6470 ft | 169 kts | 315° |
| 2026-05-06 21:38 | 17.87225 | -62.66676 | 6471 ft | 169 kts | 314° |
| 2026-05-06 21:39 | 17.88025 | -62.67596 | 6472 ft | 169 kts | 314° |
| 2026-05-06 21:39 | 17.88811 | -62.68499 | 6470 ft | 169 kts | 314° |
| 2026-05-06 21:39 | 17.89606 | -62.69404 | 6469 ft | 168 kts | 314° |
| 2026-05-06 21:39 | 17.90401 | -62.70315 | 6471 ft | 168 kts | 314° |
| 2026-05-06 21:40 | 17.91190 | -62.71223 | 6469 ft | 168 kts | 314° |
| 2026-05-06 21:40 | 17.91976 | -62.72131 | 6477 ft | 168 kts | 314° |
| 2026-05-06 21:40 | 17.92760 | -62.73039 | 6482 ft | 168 kts | 314° |
| 2026-05-06 21:40 | 17.93545 | -62.73945 | 6471 ft | 168 kts | 314° |
| 2026-05-06 21:41 | 17.94337 | -62.74864 | 6476 ft | 168 kts | 314° |
| 2026-05-06 21:41 | 17.95125 | -62.75768 | 6472 ft | 168 kts | 314° |
| 2026-05-06 21:41 | 17.95909 | -62.76671 | 6480 ft | 168 kts | 314° |
| 2026-05-06 21:41 | 17.96703 | -62.77582 | 6487 ft | 168 kts | 314° |
| 2026-05-06 21:42 | 17.97491 | -62.78481 | 6480 ft | 168 kts | 314° |
| 2026-05-06 21:42 | 17.98296 | -62.79396 | 6476 ft | 168 kts | 313° |
| 2026-05-06 21:42 | 17.99018 | -62.80368 | 6478 ft | 168 kts | 309° |
| 2026-05-06 21:42 | 17.99729 | -62.81353 | 6425 ft | 172 kts | 308° |
| 2026-05-06 21:43 | 18.00462 | -62.82381 | 6308 ft | 177 kts | 309° |
| 2026-05-06 21:43 | 18.01203 | -62.83424 | 6194 ft | 180 kts | 308° |
| 2026-05-06 21:43 | 18.01955 | -62.84483 | 6076 ft | 182 kts | 308° |
| 2026-05-06 21:43 | 18.02716 | -62.85556 | 5955 ft | 182 kts | 308° |
| 2026-05-06 21:44 | 18.03472 | -62.86621 | 5834 ft | 180 kts | 308° |
| 2026-05-06 21:44 | 18.04215 | -62.87668 | 5713 ft | 180 kts | 308° |
| 2026-05-06 21:44 | 18.04966 | -62.88724 | 5594 ft | 180 kts | 309° |
| 2026-05-06 21:44 | 18.05722 | -62.89786 | 5475 ft | 179 kts | 308° |
| 2026-05-06 21:45 | 18.06463 | -62.90824 | 5342 ft | 172 kts | 309° |
| 2026-05-06 21:45 | 18.07165 | -62.91816 | 5171 ft | 166 kts | 308° |
| 2026-05-06 21:45 | 18.07841 | -62.92775 | 5004 ft | 164 kts | 308° |
| 2026-05-06 21:45 | 18.08515 | -62.93735 | 4832 ft | 158 kts | 308° |
| 2026-05-06 21:46 | 18.09147 | -62.94645 | 4661 ft | 152 kts | 308° |
| 2026-05-06 21:46 | 18.09766 | -62.95540 | 4492 ft | 149 kts | 308° |
| 2026-05-06 21:46 | 18.10373 | -62.96419 | 4322 ft | 147 kts | 308° |
| 2026-05-06 21:46 | 18.10968 | -62.97283 | 4152 ft | 144 kts | 308° |
| 2026-05-06 21:47 | 18.11555 | -62.98138 | 3983 ft | 143 kts | 308° |
| 2026-05-06 21:47 | 18.12137 | -62.98982 | 3813 ft | 142 kts | 308° |
| 2026-05-06 21:47 | 18.12712 | -62.99816 | 3647 ft | 141 kts | 309° |
| 2026-05-06 21:47 | 18.13146 | -63.00680 | 3469 ft | 129 kts | 283° |
| 2026-05-06 21:48 | 18.13299 | -63.01575 | 3288 ft | 119 kts | 279° |
| 2026-05-06 21:48 | 18.13418 | -63.02403 | 3107 ft | 111 kts | 278° |
| 2026-05-06 21:48 | 18.13528 | -63.03172 | 2924 ft | 102 kts | 278° |
| 2026-05-06 21:48 | 18.13631 | -63.03891 | 2685 ft | 103 kts | 281° |
| 2026-05-06 21:49 | 18.13755 | -63.04666 | 2475 ft | 118 kts | 275° |
| 2026-05-06 21:49 | 18.13911 | -63.05561 | 2136 ft | 139 kts | 285° |
| 2026-05-06 21:49 | 18.14180 | -63.06558 | 1928 ft | 140 kts | 288° |
| 2026-05-06 21:49 | 18.14421 | -63.07494 | 1807 ft | 124 kts | 282° |
| 2026-05-06 21:50 | 18.14226 | -63.08328 | 1581 ft | 120 kts | 230° |
| 2026-05-06 21:50 | 18.13583 | -63.08652 | 1468 ft | 93 kts | 164° |
| 2026-05-06 21:50 | 18.13013 | -63.08416 | 1361 ft | 87 kts | 143° |
| 2026-05-06 21:50 | 18.12486 | -63.08091 | 1279 ft | 88 kts | 141° |
| 2026-05-06 21:51 | 18.11984 | -63.07737 | 1216 ft | 84 kts | 138° |
| 2026-05-06 21:51 | 18.11501 | -63.07384 | 1075 ft | 82 kts | 134° |
| 2026-05-06 21:51 | 18.11091 | -63.06980 | 900 ft | 83 kts | 129° |
| 2026-05-06 21:51 | 18.10709 | -63.06504 | 650 ft | 86 kts | 124° |
| 2026-05-06 21:52 | 18.10405 | -63.05977 | 382 ft | 84 kts | 116° |
| 2026-05-06 21:52 | 18.10196 | -63.05413 | 115 ft | 82 kts | 107° |
| 2026-05-06 21:52 | 18.10046 | -63.04904 | 16 ft | 58 kts | 107° |
| 2026-05-06 21:52 | 18.09965 | -63.04636 | 16 ft | 22 kts | 116° |
| 2026-05-06 21:53 | 18.09956 | -63.04592 | 16 ft | 6 kts | 288° |
| 2026-05-06 21:53 | 18.09982 | -63.04690 | 16 ft | 17 kts | 286° |
| 2026-05-06 21:53 | 18.10053 | -63.04749 | 16 ft | 13 kts | 18° |
| 2026-05-06 21:53 | 18.10099 | -63.04791 | 16 ft | 10 kts | 294° |
| 2026-05-06 21:54 | 18.10145 | -63.04824 | 16 ft | 2 kts | 333° |
| 2026-05-06 21:54 | 18.10146 | -63.04824 | 16 ft | 0 kts | 333° |